createdAt,value
2019-05-26T00:01:14.799Z,4.60
2019-05-26T00:03:42.790Z,3.83
2019-05-26T00:06:10.717Z,4.30
2019-05-26T00:08:38.628Z,4.60
2019-05-26T00:11:06.571Z,5.07
2019-05-26T00:13:34.496Z,4.17
2019-05-26T00:16:02.657Z,3.83
2019-05-26T00:18:33.325Z,4.13
2019-05-26T00:21:00.139Z,4.40
2019-05-26T00:23:28.144Z,4.47
2019-05-26T00:25:56.015Z,4.13
2019-05-26T00:28:23.889Z,4.53
2019-05-26T00:30:51.779Z,4.73
2019-05-26T00:33:19.699Z,4.43
2019-05-26T00:35:47.579Z,4.10
2019-05-26T00:38:15.508Z,4.40
2019-05-26T00:40:43.410Z,4.40
2019-05-26T00:43:11.429Z,4.77
2019-05-26T00:45:39.460Z,4.57
2019-05-26T00:48:07.354Z,4.63
2019-05-26T00:50:35.344Z,4.37
2019-05-26T00:53:03.367Z,4.40
2019-05-26T00:55:31.397Z,4.60
2019-05-26T00:57:59.270Z,4.50
2019-05-26T01:00:40.880Z,4.33
2019-05-26T01:03:09.145Z,4.23
2019-05-26T01:05:37.121Z,4.60
2019-05-26T01:08:06.922Z,4.97
2019-05-26T01:10:35.089Z,4.90
2019-05-26T01:13:02.960Z,4.53
2019-05-26T01:15:30.845Z,4.23
2019-05-26T01:17:58.840Z,4.10
2019-05-26T01:20:26.716Z,4.57
2019-05-26T01:22:54.697Z,4.30
2019-05-26T01:25:22.585Z,4.80
2019-05-26T01:27:50.735Z,4.40
2019-05-26T01:30:18.839Z,4.33
2019-05-26T01:32:46.740Z,4.30
2019-05-26T01:35:14.610Z,4.40
2019-05-26T01:37:42.627Z,4.57
2019-05-26T01:40:10.607Z,4.07
2019-05-26T01:42:38.559Z,4.27
2019-05-26T01:45:06.779Z,3.50
2019-05-26T01:47:34.824Z,3.63
2019-05-26T01:50:02.739Z,4.00
2019-05-26T01:52:30.677Z,4.20
2019-05-26T01:54:58.652Z,4.50
2019-05-26T01:57:26.592Z,3.93
2019-05-26T01:59:54.713Z,4.73
2019-05-26T02:02:22.639Z,4.90
2019-05-26T02:04:50.544Z,4.00
2019-05-26T02:07:18.493Z,4.10
2019-05-26T02:09:46.441Z,4.20
2019-05-26T02:12:14.426Z,4.13
2019-05-26T02:14:42.276Z,3.70
2019-05-26T02:17:10.168Z,3.70
2019-05-26T02:19:38.403Z,3.80
2019-05-26T02:22:06.480Z,3.40
2019-05-26T02:24:34.436Z,3.93
2019-05-26T02:27:02.551Z,3.70
2019-05-26T02:29:32.156Z,3.13
2019-05-26T02:32:00.049Z,3.67
2019-05-26T02:34:27.924Z,3.70
2019-05-26T02:36:55.830Z,3.73
2019-05-26T02:39:23.737Z,4.40
2019-05-26T02:41:51.623Z,4.10
2019-05-26T02:44:19.607Z,3.40
2019-05-26T02:46:47.479Z,3.67
2019-05-26T02:49:15.473Z,4.20
2019-05-26T02:51:43.344Z,3.73
2019-05-26T02:54:11.208Z,4.20
2019-05-26T02:56:39.439Z,4.10
2019-05-26T02:59:07.418Z,3.90
2019-05-26T03:01:36.025Z,4.30
2019-05-26T03:04:04.105Z,3.50
2019-05-26T03:06:32.586Z,4.40
2019-05-26T03:09:21.263Z,4.40
2019-05-26T03:11:32.209Z,4.17
2019-05-26T03:14:01.545Z,4.00
2019-05-26T03:16:31.280Z,4.60
2019-05-26T03:18:59.531Z,4.47
2019-05-26T03:21:30.912Z,5.70
2019-05-26T03:24:00.315Z,4.93
2019-05-26T03:26:29.563Z,5.40
2019-05-26T03:28:57.444Z,4.60
2019-05-26T03:31:25.369Z,4.60
2019-05-26T03:33:53.402Z,4.93
2019-05-26T03:36:21.402Z,6.10
2019-05-26T03:38:49.387Z,4.80
2019-05-26T03:41:17.271Z,5.00
2019-05-26T03:43:45.276Z,4.80
2019-05-26T03:46:16.826Z,5.57
2019-05-26T03:48:44.767Z,4.70
2019-05-26T03:51:12.902Z,4.80
2019-05-26T03:53:40.875Z,3.97
2019-05-26T03:56:08.874Z,4.00
2019-05-26T03:58:36.712Z,4.27
2019-05-26T04:01:04.597Z,5.17
2019-05-26T04:03:32.577Z,3.90
2019-05-26T04:06:00.428Z,4.43
2019-05-26T04:08:28.383Z,4.60
2019-05-26T04:10:56.240Z,5.10
2019-05-26T04:13:27.153Z,4.63
2019-05-26T04:15:55.172Z,4.17
2019-05-26T04:18:23.057Z,4.40
2019-05-26T04:20:51.182Z,5.30
2019-05-26T04:23:19.041Z,4.60
2019-05-26T04:25:46.959Z,5.10
2019-05-26T04:28:14.935Z,4.87
2019-05-26T04:30:42.850Z,5.10
2019-05-26T04:33:10.741Z,4.80
2019-05-26T04:35:38.704Z,4.63
2019-05-26T04:38:06.564Z,4.30
2019-05-26T04:40:34.555Z,4.80
2019-05-26T04:43:02.483Z,4.13
2019-05-26T04:45:30.388Z,5.00
2019-05-26T04:47:58.265Z,4.90
2019-05-26T04:50:26.259Z,4.60
2019-05-26T04:53:06.318Z,4.43
2019-05-26T04:55:23.742Z,4.10
2019-05-26T04:57:51.653Z,4.30
2019-05-26T05:00:19.655Z,4.50
2019-05-26T05:02:47.542Z,4.40
2019-05-26T05:05:15.566Z,4.17
2019-05-26T05:07:43.549Z,4.33
2019-05-26T05:10:11.555Z,4.30
2019-05-26T05:12:39.543Z,4.30
2019-05-26T05:15:07.552Z,5.30
2019-05-26T05:17:35.494Z,3.53
2019-05-26T05:20:03.455Z,4.03
2019-05-26T05:22:31.394Z,3.87
2019-05-26T05:24:59.261Z,4.30
2019-05-26T05:27:27.176Z,3.70
2019-05-26T05:29:55.140Z,3.90
2019-05-26T05:32:23.131Z,4.90
2019-05-26T05:34:51.138Z,3.53
2019-05-26T05:37:19.043Z,4.23
2019-05-26T05:39:47.866Z,3.50
2019-05-26T05:42:15.799Z,4.10
2019-05-26T05:44:43.706Z,4.40
2019-05-26T05:47:11.602Z,4.30
2019-05-26T05:49:39.565Z,4.60
2019-05-26T05:52:07.494Z,4.60
2019-05-26T05:54:35.466Z,4.10
2019-05-26T05:57:03.401Z,4.47
2019-05-26T05:59:31.334Z,5.53
2019-05-26T06:01:59.294Z,4.20
2019-05-26T06:04:28.673Z,5.43
2019-05-26T06:06:56.733Z,4.50
2019-05-26T06:09:24.608Z,4.67
2019-05-26T06:11:56.685Z,4.60
2019-05-26T06:14:22.234Z,3.67
2019-05-26T06:16:50.253Z,4.13
2019-05-26T06:19:18.197Z,4.47
2019-05-26T06:21:46.090Z,3.60
2019-05-26T06:24:14.073Z,5.70
2019-05-26T06:26:41.936Z,5.23
2019-05-26T06:29:09.789Z,4.73
2019-05-26T06:31:37.790Z,5.60
2019-05-26T06:34:05.743Z,5.00
2019-05-26T06:36:33.626Z,6.47
2019-05-26T06:39:01.631Z,4.93
2019-05-26T06:41:33.925Z,4.93
2019-05-26T06:43:59.161Z,6.17
2019-05-26T06:46:27.021Z,6.17
2019-05-26T06:48:54.932Z,4.23
2019-05-26T06:51:22.838Z,6.40
2019-05-26T06:53:50.881Z,6.50
2019-05-26T06:56:18.785Z,6.13
2019-05-26T06:58:46.758Z,5.80
2019-05-26T07:01:14.619Z,5.77
2019-05-26T07:03:42.516Z,6.30
2019-05-26T07:06:10.438Z,5.00
2019-05-26T07:08:45.163Z,5.77
2019-05-26T07:11:13.105Z,5.30
2019-05-26T07:13:41.049Z,5.53
2019-05-26T07:16:09.069Z,5.33
2019-05-26T07:18:36.972Z,5.77
2019-05-26T07:21:04.852Z,5.33
2019-05-26T07:23:32.758Z,5.30
2019-05-26T07:26:00.727Z,5.43
2019-05-26T07:28:28.589Z,5.63
2019-05-26T07:30:56.619Z,5.40
2019-05-26T07:33:24.615Z,5.43
2019-05-26T07:35:52.615Z,5.63
2019-05-26T07:38:20.626Z,5.87
2019-05-26T07:40:48.554Z,3.80
2019-05-26T07:43:16.692Z,3.60
2019-05-26T07:45:44.555Z,4.00
2019-05-26T07:48:12.423Z,4.87
2019-05-26T07:50:40.439Z,4.97
2019-05-26T07:53:08.324Z,4.60
2019-05-26T07:55:36.245Z,4.80
2019-05-26T07:58:04.207Z,6.20
2019-05-26T08:00:32.242Z,3.67
2019-05-26T08:03:00.208Z,4.33
2019-05-26T08:05:28.135Z,4.60
2019-05-26T08:08:11.509Z,4.30
2019-05-26T08:10:25.693Z,4.07
2019-05-26T08:12:53.592Z,4.93
2019-05-26T08:15:21.500Z,3.77
2019-05-26T08:17:49.622Z,3.93
2019-05-26T08:20:17.613Z,4.13
2019-05-26T08:22:45.576Z,5.77
2019-05-26T08:25:13.509Z,5.40
2019-05-26T08:27:41.478Z,4.60
2019-05-26T08:30:09.651Z,5.90
2019-05-26T08:32:37.581Z,5.93
2019-05-26T08:35:05.490Z,5.77
2019-05-26T08:37:33.468Z,5.47
2019-05-26T08:40:18.056Z,5.47
2019-05-26T08:42:46.709Z,5.27
2019-05-26T08:45:14.595Z,6.53
2019-05-26T08:47:42.669Z,7.17
2019-05-26T08:50:10.726Z,7.40
2019-05-26T08:52:38.665Z,6.17
2019-05-26T08:55:06.602Z,5.30
2019-05-26T08:57:34.472Z,4.90
2019-05-26T09:00:02.502Z,6.20
2019-05-26T09:02:30.512Z,5.43
2019-05-26T09:04:58.488Z,5.80
2019-05-26T09:07:26.429Z,6.90
2019-05-26T09:09:54.382Z,6.50
2019-05-26T09:12:22.399Z,7.20
2019-05-26T09:14:50.361Z,5.87
2019-05-26T09:17:18.315Z,5.70
2019-05-26T09:19:46.482Z,5.97
2019-05-26T09:22:14.432Z,4.77
2019-05-26T09:24:42.386Z,5.13
2019-05-26T09:27:10.310Z,5.50
2019-05-26T09:29:38.288Z,5.23
2019-05-26T09:32:06.287Z,5.60
2019-05-26T09:34:34.191Z,5.63
2019-05-26T09:37:02.067Z,4.67
2019-05-26T09:39:29.971Z,4.90
2019-05-26T09:41:57.911Z,4.87
2019-05-26T09:44:25.867Z,4.13
2019-05-26T09:46:53.919Z,4.40
2019-05-26T09:49:21.969Z,4.90
2019-05-26T09:51:50.031Z,4.33
2019-05-26T09:54:17.891Z,4.20
2019-05-26T09:56:45.790Z,5.03
2019-05-26T09:59:13.713Z,5.80
2019-05-26T10:01:41.647Z,4.33
2019-05-26T10:04:09.518Z,5.17
2019-05-26T10:06:37.422Z,4.03
2019-05-26T10:09:06.744Z,3.60
2019-05-26T10:11:34.630Z,3.70
2019-05-26T10:14:02.555Z,4.00
2019-05-26T10:16:30.464Z,3.50
2019-05-26T10:18:58.331Z,2.80
2019-05-26T10:21:26.218Z,3.27
2019-05-26T10:23:54.179Z,3.47
2019-05-26T10:26:22.134Z,3.67
2019-05-26T10:28:49.999Z,3.30
2019-05-26T10:31:24.338Z,4.30
2019-05-26T10:33:52.296Z,3.20
2019-05-26T10:36:20.292Z,4.40
2019-05-26T10:38:48.364Z,3.30
2019-05-26T10:41:16.322Z,3.60
2019-05-26T10:43:47.215Z,4.00
2019-05-26T10:46:13.874Z,4.30
2019-05-26T10:48:41.775Z,3.70
2019-05-26T10:51:09.823Z,4.03
2019-05-26T10:53:37.724Z,3.40
2019-05-26T10:56:05.757Z,4.13
2019-05-26T10:58:33.660Z,3.90
2019-05-26T11:01:01.556Z,4.63
2019-05-26T11:03:29.524Z,4.50
2019-05-26T11:05:57.511Z,4.17
2019-05-26T11:08:25.451Z,5.00
2019-05-26T11:10:53.341Z,4.20
2019-05-26T11:13:21.199Z,3.93
2019-05-26T11:15:49.201Z,5.60
2019-05-26T11:18:17.154Z,5.10
2019-05-26T11:20:45.107Z,5.13
2019-05-26T11:23:12.986Z,4.50
2019-05-26T11:25:40.853Z,4.50
2019-05-26T11:28:08.800Z,4.10
2019-05-26T11:30:36.827Z,4.13
2019-05-26T11:33:04.831Z,4.73
2019-05-26T11:35:32.759Z,3.77
2019-05-26T11:38:00.700Z,4.27
2019-05-26T11:40:28.725Z,3.70
2019-05-26T11:42:56.829Z,3.37
2019-05-26T11:45:24.729Z,2.97
2019-05-26T11:47:52.684Z,3.40
2019-05-26T11:50:20.683Z,3.77
2019-05-26T11:52:48.587Z,4.40
2019-05-26T11:55:16.539Z,4.20
2019-05-26T11:57:44.505Z,2.90
2019-05-26T12:00:15.268Z,2.83
2019-05-26T12:02:43.515Z,3.80
2019-05-26T12:05:11.447Z,3.50
2019-05-26T12:07:39.431Z,3.40
2019-05-26T12:10:07.918Z,3.80
2019-05-26T12:12:35.959Z,3.73
2019-05-26T12:15:04.793Z,3.50
2019-05-26T12:17:32.684Z,3.50
2019-05-26T12:20:04.305Z,3.40
2019-05-26T12:22:30.345Z,3.73
2019-05-26T12:24:58.243Z,3.40
2019-05-26T12:27:26.220Z,3.33
2019-05-26T12:29:54.178Z,4.07
2019-05-26T12:32:22.114Z,3.03
2019-05-26T12:34:51.033Z,3.43
2019-05-26T12:37:18.951Z,2.80
2019-05-26T12:39:46.959Z,2.80
2019-05-26T12:42:17.000Z,3.20
2019-05-26T12:44:49.445Z,2.90
2019-05-26T12:47:14.178Z,2.70
2019-05-26T12:49:42.098Z,2.90
2019-05-26T12:52:10.102Z,3.23
2019-05-26T12:54:38.214Z,2.70
2019-05-26T12:57:06.296Z,2.47
2019-05-26T12:59:34.265Z,3.33
2019-05-26T13:02:02.166Z,2.70
2019-05-26T13:04:30.179Z,2.60
2019-05-26T13:06:58.178Z,3.30
2019-05-26T13:09:26.111Z,3.50
2019-05-26T13:11:54.114Z,2.67
2019-05-26T13:14:22.061Z,2.87
2019-05-26T13:16:50.099Z,3.40
2019-05-26T13:19:18.112Z,3.30
2019-05-26T13:21:46.041Z,2.93
2019-05-26T13:24:13.986Z,3.37
2019-05-26T13:26:42.121Z,2.40
2019-05-26T13:29:10.108Z,3.07
2019-05-26T13:31:38.131Z,3.37
2019-05-26T13:34:06.089Z,2.83
2019-05-26T13:36:33.982Z,2.50
2019-05-26T13:39:01.999Z,2.60
2019-05-26T13:41:29.911Z,2.67
2019-05-26T13:43:57.832Z,2.63
2019-05-26T13:46:25.801Z,2.50
2019-05-26T13:48:53.654Z,2.30
2019-05-26T13:51:21.738Z,2.60
2019-05-26T13:53:49.635Z,2.53
2019-05-26T13:56:17.638Z,2.40
2019-05-26T13:58:45.653Z,5.67
2019-05-26T14:01:13.516Z,2.67
2019-05-26T14:03:41.542Z,2.30
2019-05-26T14:06:09.601Z,2.40
2019-05-26T14:08:37.507Z,2.30
2019-05-26T14:11:05.428Z,2.00
2019-05-26T14:13:33.339Z,1.90
2019-05-26T14:16:01.515Z,2.00
2019-05-26T14:18:30.457Z,2.30
2019-05-26T14:20:58.353Z,2.40
2019-05-26T14:23:26.321Z,2.57
2019-05-26T14:25:54.234Z,2.07
2019-05-26T14:28:22.394Z,5.40
2019-05-26T14:30:50.290Z,4.30
2019-05-26T14:33:18.142Z,2.70
2019-05-26T14:35:46.074Z,2.40
2019-05-26T14:38:13.953Z,1.90
2019-05-26T14:40:42.151Z,2.40
2019-05-26T14:43:10.032Z,1.73
2019-05-26T14:45:52.286Z,2.37
2019-05-26T14:48:07.510Z,1.77
2019-05-26T14:50:35.459Z,2.00
2019-05-26T14:53:03.419Z,2.23
2019-05-26T14:55:31.362Z,1.60
2019-05-26T14:58:14.356Z,1.60
2019-05-26T15:00:29.004Z,2.20
2019-05-26T15:02:56.916Z,2.27
2019-05-26T15:05:24.757Z,2.83
2019-05-26T15:07:52.690Z,2.40
2019-05-26T15:10:22.639Z,2.50
2019-05-26T15:12:50.158Z,2.90
2019-05-26T15:15:18.064Z,2.40
2019-05-26T15:17:45.924Z,2.60
2019-05-26T15:20:13.929Z,2.40
2019-05-26T15:22:42.079Z,2.30
2019-05-26T15:25:10.162Z,2.30
2019-05-26T15:27:38.043Z,2.47
2019-05-26T15:30:07.552Z,2.30
2019-05-26T15:32:35.523Z,2.30
2019-05-26T15:35:03.538Z,2.40
2019-05-26T15:37:31.540Z,2.10
2019-05-26T15:39:59.479Z,2.20
2019-05-26T15:42:27.535Z,2.57
2019-05-26T15:44:55.444Z,1.83
2019-05-26T15:47:23.572Z,1.90
2019-05-26T15:49:51.540Z,1.90
2019-05-26T15:52:19.425Z,1.90
2019-05-26T15:54:47.371Z,1.70
2019-05-26T15:57:15.275Z,1.57
2019-05-26T15:59:43.421Z,1.70
2019-05-26T16:02:11.374Z,2.03
2019-05-26T16:04:39.278Z,1.77
2019-05-26T16:07:07.210Z,1.60
2019-05-26T16:09:35.148Z,1.80
2019-05-26T16:12:03.081Z,1.70
2019-05-26T16:14:31.175Z,1.93
2019-05-26T16:16:59.079Z,1.80
2019-05-26T16:19:26.960Z,1.57
2019-05-26T16:21:54.930Z,1.40
2019-05-26T16:24:23.094Z,1.80
2019-05-26T16:26:51.094Z,1.70
2019-05-26T16:29:19.101Z,1.83
2019-05-26T16:31:47.927Z,1.90
2019-05-26T16:34:16.174Z,1.60
2019-05-26T16:36:44.295Z,1.60
2019-05-26T16:39:12.286Z,1.80
2019-05-26T16:41:40.206Z,2.33
2019-05-26T16:44:08.259Z,1.87
2019-05-26T16:46:36.269Z,2.37
2019-05-26T16:49:04.474Z,1.77
2019-05-26T16:51:32.369Z,2.27
2019-05-26T16:54:00.244Z,1.73
2019-05-26T16:56:28.380Z,1.90
2019-05-26T16:58:56.383Z,1.87
2019-05-26T17:01:24.293Z,1.50
2019-05-26T17:03:52.265Z,1.47
2019-05-26T17:06:20.311Z,1.53
2019-05-26T17:08:48.246Z,1.77
2019-05-26T17:11:16.200Z,1.60
2019-05-26T17:13:44.163Z,2.00
2019-05-26T17:16:12.059Z,2.00
2019-05-26T17:18:40.003Z,1.60
2019-05-26T17:21:07.944Z,1.63
2019-05-26T17:23:36.268Z,1.97
2019-05-26T17:26:04.728Z,1.90
2019-05-26T17:28:32.663Z,1.80
2019-05-26T17:31:00.654Z,1.63
2019-05-26T17:33:28.582Z,1.40
2019-05-26T17:35:56.576Z,1.90
2019-05-26T17:38:24.506Z,1.70
2019-05-26T17:40:52.430Z,2.23
2019-05-26T17:43:20.407Z,2.13
2019-05-26T17:45:48.319Z,1.70
2019-05-26T17:48:16.240Z,1.77
2019-05-26T17:50:44.332Z,1.40
2019-05-26T17:53:12.191Z,1.70
2019-05-26T17:55:40.180Z,1.40
2019-05-26T17:58:08.141Z,1.63
2019-05-26T18:00:36.062Z,1.60
2019-05-26T18:03:04.054Z,1.40
2019-05-26T18:05:32.052Z,1.37
2019-05-26T18:08:00.130Z,1.60
2019-05-26T18:10:28.073Z,1.50
2019-05-26T18:12:56.089Z,1.50
2019-05-26T18:15:24.243Z,1.70
2019-05-26T18:17:52.208Z,1.53
2019-05-26T18:20:20.248Z,1.60
2019-05-26T18:22:48.349Z,2.03
2019-05-26T18:25:16.327Z,1.30
2019-05-26T18:27:44.355Z,1.50
2019-05-26T18:30:12.688Z,1.40
2019-05-26T18:32:40.614Z,1.30
2019-05-26T18:35:08.555Z,1.90
2019-05-26T18:37:36.558Z,1.90
2019-05-26T18:40:05.116Z,1.70
2019-05-26T18:42:33.069Z,1.47
2019-05-26T18:45:00.939Z,1.50
2019-05-26T18:47:29.017Z,1.60
2019-05-26T18:49:56.955Z,1.73
2019-05-26T18:52:25.071Z,1.47
2019-05-26T18:54:53.015Z,1.33
2019-05-26T18:57:21.284Z,1.87
2019-05-26T18:59:49.193Z,1.60
2019-05-26T19:02:17.181Z,1.50
2019-05-26T19:04:45.260Z,1.50
2019-05-26T19:07:13.123Z,1.60
2019-05-26T19:09:41.041Z,1.47
2019-05-26T19:12:08.926Z,1.60
2019-05-26T19:14:36.953Z,1.60
2019-05-26T19:17:04.983Z,1.80
2019-05-26T19:19:32.891Z,1.47
2019-05-26T19:22:00.742Z,1.70
2019-05-26T19:24:28.852Z,1.70
2019-05-26T19:26:56.907Z,1.77
2019-05-26T19:29:24.939Z,1.73
2019-05-26T19:31:52.839Z,1.67
2019-05-26T19:34:20.712Z,1.50
2019-05-26T19:36:48.588Z,2.10
2019-05-26T19:39:16.525Z,1.50
2019-05-26T19:41:44.371Z,1.70
2019-05-26T19:44:12.402Z,1.93
2019-05-26T19:46:40.299Z,1.43
2019-05-26T19:49:08.231Z,1.63
2019-05-26T19:51:36.135Z,1.83
2019-05-26T19:54:04.069Z,1.90
2019-05-26T19:56:32.054Z,1.83
2019-05-26T19:58:59.927Z,1.70
2019-05-26T20:01:27.792Z,1.60
2019-05-26T20:03:55.695Z,1.80
2019-05-26T20:06:23.606Z,2.20
2019-05-26T20:08:51.489Z,2.00
2019-05-26T20:11:19.364Z,1.90
2019-05-26T20:13:47.390Z,1.80
2019-05-26T20:16:15.295Z,2.40
2019-05-26T20:18:43.207Z,2.30
2019-05-26T20:21:11.203Z,2.10
2019-05-26T20:23:39.143Z,1.90
2019-05-26T20:26:07.257Z,1.80
2019-05-26T20:28:35.293Z,2.10
2019-05-26T20:31:03.367Z,1.90
2019-05-26T20:33:31.312Z,2.10
2019-05-26T20:35:59.218Z,2.40
2019-05-26T20:38:27.143Z,1.97
2019-05-26T20:40:55.243Z,2.00
2019-05-26T20:43:25.130Z,2.50
2019-05-26T20:45:52.974Z,2.17
2019-05-26T20:48:20.895Z,2.03
2019-05-26T20:50:48.944Z,1.87
2019-05-26T20:53:16.859Z,2.00
2019-05-26T20:55:44.928Z,2.10
2019-05-26T20:58:12.883Z,1.80
2019-05-26T21:00:40.834Z,1.70
2019-05-26T21:03:08.765Z,1.70
2019-05-26T21:05:36.679Z,1.80
2019-05-26T21:08:04.686Z,2.20
2019-05-26T21:10:32.563Z,1.90
2019-05-26T21:13:00.648Z,1.90
2019-05-26T21:15:28.558Z,1.87
2019-05-26T21:17:56.484Z,2.07
2019-05-26T21:20:24.368Z,1.80
2019-05-26T21:22:52.369Z,2.10
2019-05-26T21:25:20.532Z,1.80
2019-05-26T21:27:48.452Z,1.83
2019-05-26T21:30:16.437Z,1.90
2019-05-26T21:32:44.335Z,2.23
2019-05-26T21:35:12.307Z,2.30
2019-05-26T21:37:40.244Z,2.10
2019-05-26T21:40:08.433Z,2.13
2019-05-26T21:42:36.482Z,2.77
2019-05-26T21:45:04.960Z,2.57
2019-05-26T21:47:32.842Z,2.10
2019-05-26T21:50:00.990Z,2.10
2019-05-26T21:52:28.871Z,1.90
2019-05-26T21:54:56.796Z,2.40
2019-05-26T21:57:24.783Z,2.20
2019-05-26T21:59:52.735Z,2.20
2019-05-26T22:02:20.715Z,2.37
2019-05-26T22:04:48.597Z,1.93
2019-05-26T22:07:16.518Z,2.20
2019-05-26T22:09:44.425Z,2.43
2019-05-26T22:12:12.295Z,2.00
2019-05-26T22:14:40.240Z,2.30
2019-05-26T22:17:08.143Z,2.07
2019-05-26T22:19:36.036Z,2.20
2019-05-26T22:22:04.065Z,2.20
2019-05-26T22:24:31.971Z,2.10
2019-05-26T22:26:59.987Z,2.10
2019-05-26T22:29:27.895Z,2.70
2019-05-26T22:31:55.807Z,2.53
2019-05-26T22:34:23.672Z,2.30
2019-05-26T22:36:51.536Z,2.50
2019-05-26T22:39:19.448Z,2.33
2019-05-26T22:41:47.350Z,2.40
2019-05-26T22:44:15.217Z,2.27
2019-05-26T22:46:43.169Z,2.70
2019-05-26T22:49:11.217Z,2.60
2019-05-26T22:51:39.160Z,2.40
2019-05-26T22:54:07.128Z,2.80
2019-05-26T22:56:35.032Z,2.37
2019-05-26T22:59:02.991Z,2.73
2019-05-26T23:01:30.900Z,2.90
2019-05-26T23:03:58.781Z,2.63
2019-05-26T23:06:26.683Z,2.70
2019-05-26T23:08:54.591Z,2.40
2019-05-26T23:11:22.653Z,2.80
2019-05-26T23:13:50.494Z,2.40
2019-05-26T23:16:18.485Z,2.60
2019-05-26T23:18:46.381Z,2.27
2019-05-26T23:21:14.256Z,2.40
2019-05-26T23:23:42.191Z,2.60
2019-05-26T23:26:10.089Z,2.53
2019-05-26T23:28:37.995Z,2.87
2019-05-26T23:31:05.916Z,2.47
2019-05-26T23:33:33.868Z,2.83
2019-05-26T23:36:01.794Z,2.37
2019-05-26T23:38:29.754Z,2.93
2019-05-26T23:40:57.624Z,2.43
2019-05-26T23:43:25.574Z,2.67
2019-05-26T23:45:53.583Z,3.10
2019-05-26T23:48:21.624Z,2.80
2019-05-26T23:50:49.549Z,2.70
2019-05-26T23:53:17.684Z,3.03
2019-05-26T23:55:45.584Z,2.40
2019-05-26T23:58:13.564Z,2.50
